Time;durP1;ratioP1;P1;durP2;ratioP2;P2;SDS_P1;SDS_P2;PMS_P1;PMS_P2;Temp;Humidity;BMP_temperature;BMP_pressure;BME280_temperature;BME280_humidity;BME280_pressure;Samples;Min_cycle;Max_cycle;Signal;HPM_P1;HPM_P2
2022/07/05 00:01:58;;;;;;;1.20;1.10;;;;;;;19.42;47.77;101764.66;4995278;28;97421;-48
2022/07/05 00:04:24;;;;;;;2.03;0.93;;;;;;;19.37;47.75;101768.25;4994865;28;97115;-48
2022/07/05 00:09:33;;;;;;;1.47;1.00;;;;;;;19.23;48.05;101757.50;4997935;28;97101;-49
2022/07/05 00:11:59;;;;;;;1.37;0.60;;;;;;;19.17;48.10;101763.16;4999289;28;97314;-48
2022/07/05 00:14:24;;;;;;;2.33;1.00;;;;;;;19.14;48.06;101758.63;4996635;28;98476;-49
2022/07/05 00:16:49;;;;;;;2.00;1.00;;;;;;;19.10;47.99;101757.41;4990793;28;97267;-51
2022/07/05 00:19:15;;;;;;;1.57;0.90;;;;;;;19.05;48.17;101756.19;4994671;28;97214;-47
2022/07/05 00:21:41;;;;;;;1.33;0.70;;;;;;;18.99;48.32;101758.28;4991141;28;97753;-47
2022/07/05 00:24:06;;;;;;;1.50;0.60;;;;;;;18.97;48.21;101762.88;4996488;28;97405;-49
2022/07/05 00:26:32;;;;;;;0.97;0.77;;;;;;;18.95;48.39;101755.06;4995744;28;97284;-46
2022/07/05 00:28:57;;;;;;;2.00;1.00;;;;;;;18.92;48.56;101749.75;4996340;28;96994;-48
2022/07/05 00:31:22;;;;;;;1.10;0.67;;;;;;;18.89;48.42;101745.25;4998338;28;96872;-48
2022/07/05 00:33:48;;;;;;;2.90;1.20;;;;;;;18.85;48.34;101753.16;4996976;28;98392;-47
2022/07/05 00:36:13;;;;;;;1.30;0.90;;;;;;;18.81;48.52;101761.03;4994691;28;97424;-49
2022/07/05 00:38:38;;;;;;;1.50;1.00;;;;;;;18.78;48.56;101757.28;4995677;28;97612;-47
2022/07/05 00:41:04;;;;;;;1.03;0.80;;;;;;;18.75;48.71;101763.13;4993686;28;97269;-47
2022/07/05 00:43:29;;;;;;;1.00;0.80;;;;;;;18.69;48.58;101757.63;4996600;28;97174;-47
2022/07/05 00:45:55;;;;;;;1.50;0.80;;;;;;;18.62;48.59;101749.81;4992412;28;97213;-47
2022/07/05 00:48:20;;;;;;;1.63;0.70;;;;;;;18.57;48.66;101747.84;4992471;28;97279;-47
2022/07/05 00:50:45;;;;;;;2.13;1.00;;;;;;;18.55;48.85;101758.75;4998275;28;97288;-46
2022/07/05 00:53:11;;;;;;;1.40;0.80;;;;;;;18.53;48.97;101761.31;4993319;28;97637;-48
2022/07/05 00:55:37;;;;;;;1.77;0.80;;;;;;;18.50;48.83;101756.78;4996559;28;96960;-47
2022/07/05 00:58:02;;;;;;;1.27;0.70;;;;;;;18.44;48.92;101759.63;4998996;28;97031;-47
2022/07/05 01:00:28;;;;;;;1.40;0.90;;;;;;;18.40;49.05;101759.13;4994333;28;97078;-50
2022/07/05 01:02:53;;;;;;;1.63;0.80;;;;;;;18.37;48.87;101762.19;4995281;28;97208;-47
2022/07/05 01:05:19;;;;;;;1.30;0.80;;;;;;;18.34;49.07;101760.44;4991522;28;97239;-49
2022/07/05 01:07:44;;;;;;;0.93;0.70;;;;;;;18.29;49.05;101753.63;4987841;28;96964;-47
2022/07/05 01:10:10;;;;;;;1.30;0.87;;;;;;;18.26;49.20;101749.09;4992054;28;96911;-47
2022/07/05 01:12:38;;;;;;;1.20;0.80;;;;;;;18.22;49.24;101756.22;4991617;28;97272;-50
2022/07/05 01:15:03;;;;;;;1.10;0.93;;;;;;;18.11;49.30;101759.84;4995474;28;100897;-50
2022/07/05 01:17:29;;;;;;;0.80;0.80;;;;;;;18.00;49.42;101767.56;4996544;28;97050;-47
2022/07/05 01:19:54;;;;;;;1.17;1.07;;;;;;;17.95;49.45;101769.09;4999251;28;97343;-52
2022/07/05 01:22:23;;;;;;;1.63;0.83;;;;;;;17.88;49.57;101764.84;4995247;28;96858;-47
2022/07/05 01:24:51;;;;;;;1.57;1.13;;;;;;;17.84;49.60;101767.13;4994539;28;96791;-48
2022/07/05 01:27:18;;;;;;;1.03;0.80;;;;;;;17.80;49.32;101766.66;5000444;28;97325;-48
2022/07/05 01:29:43;;;;;;;1.53;0.93;;;;;;;17.80;49.69;101763.13;4992292;28;97005;-46
2022/07/05 01:32:09;;;;;;;0.60;0.60;;;;;;;17.78;49.67;101768.44;4994572;28;96960;-49
2022/07/05 01:34:38;;;;;;;1.20;0.90;;;;;;;17.76;49.62;101757.06;4993693;28;97222;-49
2022/07/05 01:37:05;;;;;;;1.63;0.90;;;;;;;17.72;49.60;101756.56;4995483;28;96841;-48
2022/07/05 01:39:30;;;;;;;1.53;0.90;;;;;;;17.70;49.70;101750.78;4998103;28;97818;-47
2022/07/05 01:41:56;;;;;;;0.70;0.67;;;;;;;17.66;49.71;101751.06;4995817;28;97439;-48
2022/07/05 01:44:21;;;;;;;3.43;1.00;;;;;;;17.66;49.84;101759.41;4998307;28;96859;-48
2022/07/05 01:46:54;;;;;;;1.60;1.13;;;;;;;17.68;50.13;101762.44;4993945;28;98315;-48
2022/07/05 01:49:21;;;;;;;1.37;0.90;;;;;;;17.68;49.86;101758.88;4997632;28;97025;-47
2022/07/05 01:52:03;;;;;;;1.20;0.90;;;;;;;17.65;50.36;101760.66;4995897;28;96920;-47
2022/07/05 01:54:28;;;;;;;2.87;1.00;;;;;;;17.63;49.89;101762.44;4995089;28;97789;-48
2022/07/05 01:56:54;;;;;;;1.13;1.00;;;;;;;17.60;50.00;101764.25;4995784;28;97159;-48
2022/07/05 01:59:19;;;;;;;1.40;1.10;;;;;;;17.59;50.04;101768.31;4996674;28;96891;-48
2022/07/05 02:01:44;;;;;;;1.40;0.90;;;;;;;17.55;50.15;101753.13;5001104;28;99963;-47
2022/07/05 02:04:11;;;;;;;1.60;1.10;;;;;;;17.53;50.21;101759.22;4997282;28;97234;-49
2022/07/05 02:06:37;;;;;;;1.90;1.17;;;;;;;17.51;50.08;101766.56;4990968;28;97152;-47
2022/07/05 02:09:05;;;;;;;1.40;1.00;;;;;;;17.48;50.14;101756.44;4995105;28;96775;-48
2022/07/05 02:11:31;;;;;;;2.23;1.10;;;;;;;17.44;50.29;101758.72;4995588;28;96801;-49
2022/07/05 02:13:58;;;;;;;1.73;0.87;;;;;;;17.43;50.24;101760.03;5001162;28;97250;-48
2022/07/05 02:16:24;;;;;;;3.27;0.93;;;;;;;17.37;50.34;101751.69;4998439;28;96865;-47
2022/07/05 02:18:49;;;;;;;1.93;1.10;;;;;;;17.31;50.46;101758.53;4991244;28;97421;-48
2022/07/05 02:21:15;;;;;;;1.73;1.07;;;;;;;17.30;50.49;101762.59;5001580;28;97427;-49
2022/07/05 02:23:40;;;;;;;0.90;0.70;;;;;;;17.29;50.54;101764.63;5004815;28;97064;-50
2022/07/05 02:26:05;;;;;;;1.00;0.90;;;;;;;17.25;50.51;101759.31;4998978;28;97183;-48
2022/07/05 02:28:31;;;;;;;1.60;0.83;;;;;;;17.19;50.48;101755.03;5002723;28;96924;-49
2022/07/05 02:30:56;;;;;;;2.57;1.20;;;;;;;17.16;50.65;101754.06;4996089;28;97890;-48
2022/07/05 02:33:22;;;;;;;1.10;1.00;;;;;;;17.13;50.81;101766.19;5002134;28;98586;-48
2022/07/05 02:35:47;;;;;;;2.20;1.20;;;;;;;17.13;50.82;101773.78;4997532;28;97009;-47
2022/07/05 02:38:12;;;;;;;1.90;0.90;;;;;;;17.13;50.83;101771.00;4997078;28;97118;-47
2022/07/05 02:40:38;;;;;;;2.10;1.10;;;;;;;17.06;50.85;101760.41;4998654;28;97367;-48
2022/07/05 02:43:03;;;;;;;0.87;0.87;;;;;;;17.07;50.82;101771.03;4997768;28;97471;-48
2022/07/05 02:45:28;;;;;;;0.90;0.90;;;;;;;17.06;50.82;101777.06;5002403;28;96779;-48
2022/07/05 02:47:54;;;;;;;2.40;1.00;;;;;;;17.02;50.92;101765.47;4991725;28;97289;-47
2022/07/05 02:50:19;;;;;;;1.53;1.20;;;;;;;16.96;51.09;101768.28;4995330;28;97414;-48
2022/07/05 02:52:45;;;;;;;1.40;0.93;;;;;;;16.94;50.99;101764.47;4993091;28;99398;-48
2022/07/05 02:55:10;;;;;;;1.57;1.20;;;;;;;16.89;51.14;101774.34;4993171;28;96808;-46
2022/07/05 02:57:39;;;;;;;1.27;1.13;;;;;;;16.84;51.12;101779.94;4998921;28;96958;-47
2022/07/05 03:00:05;;;;;;;0.80;0.80;;;;;;;16.79;51.23;101770.34;4998688;28;97513;-47
2022/07/05 03:02:31;;;;;;;1.27;1.23;;;;;;;16.74;51.07;101775.91;4994802;28;97019;-48
2022/07/05 03:04:56;;;;;;;2.00;1.00;;;;;;;16.68;51.18;101766.81;4998734;28;96860;-48
2022/07/05 03:07:22;;;;;;;1.30;1.20;;;;;;;16.63;51.21;101785.00;4995103;28;97107;-47
2022/07/05 03:09:47;;;;;;;1.17;1.07;;;;;;;16.60;51.27;101776.94;4993764;28;97015;-48
2022/07/05 03:12:12;;;;;;;1.10;1.10;;;;;;;16.56;51.28;101779.19;4998662;28;98582;-48
2022/07/05 03:14:38;;;;;;;1.30;1.20;;;;;;;16.52;51.23;101784.25;4995115;28;97299;-48
2022/07/05 03:17:03;;;;;;;0.93;0.93;;;;;;;16.42;51.35;101789.28;4995103;28;97460;-49
2022/07/05 03:19:29;;;;;;;1.47;1.03;;;;;;;16.32;51.38;101782.47;4995961;28;97008;-49
2022/07/05 03:21:54;;;;;;;3.97;0.90;;;;;;;16.21;51.65;101788.00;4997540;28;97745;-48
2022/07/05 03:24:19;;;;;;;1.47;0.80;;;;;;;16.08;51.68;101794.06;4998944;28;97077;-48
2022/07/05 03:26:45;;;;;;;1.57;1.20;;;;;;;15.89;51.86;101795.03;4994484;28;97134;-48
2022/07/05 03:29:10;;;;;;;1.73;1.30;;;;;;;15.87;52.11;101803.88;4992450;28;97079;-48
2022/07/05 03:31:36;;;;;;;1.17;1.07;;;;;;;15.87;51.92;101809.41;5003474;28;96951;-47
2022/07/05 03:34:01;;;;;;;1.20;1.00;;;;;;;15.78;52.00;101798.53;4990247;28;97304;-48
2022/07/05 03:36:27;;;;;;;1.20;1.03;;;;;;;15.79;52.03;101808.41;4992962;28;99541;-48
2022/07/05 03:38:52;;;;;;;2.90;1.23;;;;;;;15.85;52.02;101806.38;4990335;28;96990;-47
2022/07/05 03:41:18;;;;;;;1.23;1.00;;;;;;;15.88;51.90;101805.38;4995604;28;97301;-47
2022/07/05 03:43:43;;;;;;;2.40;1.07;;;;;;;15.89;51.84;101806.13;4993361;28;97256;-47
2022/07/05 03:46:08;;;;;;;1.60;1.00;;;;;;;15.90;51.92;101800.06;4993812;28;96860;-48
2022/07/05 03:48:34;;;;;;;1.20;1.10;;;;;;;15.93;52.08;101810.19;4997100;28;96838;-48
2022/07/05 03:50:59;;;;;;;1.50;1.40;;;;;;;15.99;52.06;101808.16;4994251;28;98117;-46
2022/07/05 03:53:25;;;;;;;1.17;1.07;;;;;;;16.01;51.88;101808.41;4993758;28;96660;-48
2022/07/05 03:55:51;;;;;;;2.30;1.70;;;;;;;16.03;51.97;101805.91;4992693;28;97494;-48
2022/07/05 03:58:17;;;;;;;1.07;0.90;;;;;;;16.01;51.97;101804.91;4989203;28;97047;-48
2022/07/05 04:00:42;;;;;;;1.90;1.00;;;;;;;16.03;52.10;101813.50;4995215;28;97208;-47
2022/07/05 04:03:07;;;;;;;0.90;0.90;;;;;;;16.08;52.08;101804.41;4991904;28;97383;-49
2022/07/05 04:05:33;;;;;;;1.83;1.40;;;;;;;16.10;52.02;101810.22;4996376;28;97527;-49
2022/07/05 04:07:58;;;;;;;1.13;0.97;;;;;;;16.10;51.96;101808.19;4998871;28;98445;-48
2022/07/05 04:10:24;;;;;;;1.67;0.90;;;;;;;16.12;52.14;101819.56;4997415;28;96729;-49
2022/07/05 04:12:49;;;;;;;2.67;1.33;;;;;;;16.16;52.13;101808.94;4994393;28;97170;-47
2022/07/05 04:15:15;;;;;;;2.23;1.10;;;;;;;16.17;52.01;101798.59;4997929;28;97165;-47
2022/07/05 04:17:51;;;;;;;1.07;1.07;;;;;;;16.23;52.68;101813.25;4998115;28;97458;-48
2022/07/05 04:20:18;;;;;;;1.40;1.10;;;;;;;16.20;52.08;101803.94;4996033;28;100545;-48
2022/07/05 04:22:43;;;;;;;1.40;1.30;;;;;;;16.20;52.21;101808.72;4997955;28;97124;-48
2022/07/05 04:25:16;;;;;;;3.40;1.40;;;;;;;16.21;52.13;101815.78;4992556;28;96980;-48
2022/07/05 04:27:42;;;;;;;1.87;1.30;;;;;;;16.25;52.33;101819.81;4991624;28;97112;-48
2022/07/05 04:30:09;;;;;;;1.87;0.97;;;;;;;16.26;52.20;101810.25;4997268;28;97573;-48
2022/07/05 04:32:35;;;;;;;2.30;1.43;;;;;;;16.22;52.41;101806.19;4994833;28;96842;-48
2022/07/05 04:35:00;;;;;;;0.87;0.87;;;;;;;16.24;52.58;101818.31;4999005;28;96820;-48
2022/07/05 04:37:25;;;;;;;1.87;0.70;;;;;;;16.30;52.46;101813.53;4985442;28;97118;-48
2022/07/05 04:39:51;;;;;;;2.00;1.57;;;;;;;16.33;52.48;101812.53;4993098;28;104115;-48
2022/07/05 04:42:16;;;;;;;0.73;0.73;;;;;;;16.37;52.45;101817.81;4995350;28;96993;-48
2022/07/05 04:44:41;;;;;;;1.90;1.20;;;;;;;16.38;52.61;101824.91;4993187;28;97276;-48
2022/07/05 04:47:07;;;;;;;0.90;0.80;;;;;;;16.43;52.48;101826.91;4992731;28;97497;-48
2022/07/05 04:49:32;;;;;;;1.90;1.10;;;;;;;16.43;52.52;101824.13;4999090;28;97000;-48
2022/07/05 04:51:57;;;;;;;1.50;1.10;;;;;;;16.45;52.68;101830.69;4990889;28;96966;-48
2022/07/05 04:54:23;;;;;;;1.43;1.23;;;;;;;16.50;52.74;101826.44;4997704;28;103479;-48
2022/07/05 04:56:48;;;;;;;5.40;1.40;;;;;;;16.54;52.68;101831.72;4994972;28;97287;-48
2022/07/05 04:59:13;;;;;;;1.20;1.10;;;;;;;16.57;52.75;101836.28;4999337;28;96910;-48
2022/07/05 05:01:39;;;;;;;4.37;1.37;;;;;;;16.58;52.90;101829.47;4993758;28;97076;-48
2022/07/05 05:04:04;;;;;;;1.10;1.10;;;;;;;16.58;52.84;101832.25;4996018;28;96674;-48
2022/07/05 05:06:29;;;;;;;3.33;1.00;;;;;;;16.61;52.96;101834.00;4996342;28;106223;-48
2022/07/05 05:08:55;;;;;;;2.50;1.23;;;;;;;16.65;52.96;101826.19;4993390;28;97144;-48
2022/07/05 05:11:20;;;;;;;0.90;0.90;;;;;;;16.67;53.02;101829.97;4996820;28;97133;-47
2022/07/05 05:13:46;;;;;;;1.60;1.50;;;;;;;16.70;53.23;101840.09;4997378;28;97229;-48
2022/07/05 05:16:12;;;;;;;1.97;1.10;;;;;;;16.78;53.30;101845.88;4991110;28;96845;-47
2022/07/05 05:18:37;;;;;;;2.60;1.00;;;;;;;16.80;53.28;101835.78;4996878;28;97139;-47
2022/07/05 05:21:04;;;;;;;2.60;0.90;;;;;;;16.87;53.27;101845.63;4992992;28;97533;-47
2022/07/05 05:23:29;;;;;;;6.10;1.20;;;;;;;16.94;53.28;101836.78;4996130;28;97115;-48
2022/07/05 05:25:54;;;;;;;2.50;0.90;;;;;;;17.03;53.25;101839.28;4996887;28;97354;-47
2022/07/05 05:28:20;;;;;;;1.70;1.30;;;;;;;17.13;53.36;101837.72;4995558;28;97024;-47
2022/07/05 05:30:46;;;;;;;1.90;1.20;;;;;;;17.20;53.35;101843.56;4996377;28;96945;-50
2022/07/05 05:33:12;;;;;;;1.37;1.20;;;;;;;17.31;53.37;101848.31;4993582;28;96826;-47
2022/07/05 05:35:37;;;;;;;1.90;1.13;;;;;;;17.44;53.42;101848.53;4998845;28;97313;-47
2022/07/05 05:38:02;;;;;;;1.83;1.27;;;;;;;17.54;53.63;101849.78;4997438;28;96971;-48
2022/07/05 05:40:28;;;;;;;1.57;1.10;;;;;;;17.70;53.77;101846.19;4997770;28;97505;-48
2022/07/05 05:42:54;;;;;;;1.23;1.13;;;;;;;17.82;53.47;101844.09;5000508;28;97024;-48
2022/07/05 05:45:20;;;;;;;0.90;0.80;;;;;;;17.95;53.47;101849.84;4994187;28;96990;-48
2022/07/05 05:47:51;;;;;;;1.77;1.13;;;;;;;18.09;53.83;101851.53;4986976;28;97118;-48
2022/07/05 05:50:24;;;;;;;1.10;1.00;;;;;;;18.21;53.55;101855.78;5001905;28;96999;-48
2022/07/05 05:52:51;;;;;;;2.40;1.37;;;;;;;18.34;53.34;101857.97;4996089;28;96873;-48
2022/07/05 05:55:17;;;;;;;2.23;1.50;;;;;;;18.46;53.04;101849.03;4997323;28;97371;-49
2022/07/05 05:57:43;;;;;;;1.50;1.20;;;;;;;18.59;53.03;101856.78;4996954;28;97190;-48
2022/07/05 06:00:09;;;;;;;2.50;1.00;;;;;;;18.70;53.02;101856.69;4993973;28;96818;-48
2022/07/05 06:02:34;;;;;;;1.80;1.07;;;;;;;18.79;52.72;101858.38;4999006;28;96888;-48
2022/07/05 06:05:00;;;;;;;3.90;1.17;;;;;;;18.86;52.52;101857.81;4989508;28;98679;-48
2022/07/05 06:07:25;;;;;;;0.97;0.87;;;;;;;18.99;52.61;101863.53;4994114;28;97552;-52
2022/07/05 06:09:51;;;;;;;2.20;1.00;;;;;;;19.08;52.33;101866.75;4991894;28;96932;-47
2022/07/05 06:12:17;;;;;;;1.47;1.10;;;;;;;19.15;52.17;101871.75;4994742;28;97098;-48
2022/07/05 06:14:42;;;;;;;1.00;0.90;;;;;;;19.22;51.93;101885.09;4996204;28;97411;-48
2022/07/05 06:17:07;;;;;;;1.10;0.83;;;;;;;19.30;52.23;101880.47;4997318;28;97357;-48
2022/07/05 06:19:33;;;;;;;0.70;0.70;;;;;;;19.39;52.04;101877.34;4994402;28;97318;-48
2022/07/05 06:21:58;;;;;;;1.90;0.97;;;;;;;19.48;51.99;101901.38;5000175;28;97370;-48
2022/07/05 06:24:24;;;;;;;1.27;0.90;;;;;;;19.58;51.75;101885.75;4992972;28;96924;-47
2022/07/05 06:26:49;;;;;;;1.27;0.70;;;;;;;19.67;51.25;101887.44;4991781;28;97245;-48
2022/07/05 06:29:14;;;;;;;1.10;1.00;;;;;;;19.76;50.66;101892.66;5001171;28;97280;-49
2022/07/05 06:31:40;;;;;;;1.57;1.10;;;;;;;19.83;50.43;101903.97;4996692;28;97131;-48
2022/07/05 06:34:05;;;;;;;1.10;0.80;;;;;;;19.92;50.10;101898.03;4993148;28;97307;-48
2022/07/05 06:36:31;;;;;;;0.90;0.70;;;;;;;20.05;49.97;101894.56;4992329;28;97287;-48
2022/07/05 06:38:56;;;;;;;6.70;0.63;;;;;;;20.13;49.68;101913.00;4996149;28;97107;-48
2022/07/05 06:41:21;;;;;;;2.20;0.60;;;;;;;20.21;49.52;101904.00;4993497;28;97271;-47
2022/07/05 06:43:47;;;;;;;0.60;0.50;;;;;;;20.24;48.94;101897.38;4996669;28;97366;-48
2022/07/05 06:46:12;;;;;;;1.03;0.80;;;;;;;20.31;48.96;101903.13;4993963;28;97328;-48
2022/07/05 06:48:37;;;;;;;0.87;0.87;;;;;;;20.39;48.63;101908.84;4988284;28;97075;-49
2022/07/05 06:51:03;;;;;;;0.80;0.67;;;;;;;20.47;48.37;101904.13;4989933;28;97231;-51
2022/07/05 06:53:28;;;;;;;0.60;0.60;;;;;;;20.54;48.02;101898.69;4994161;28;97194;-49
2022/07/05 06:55:53;;;;;;;0.60;0.53;;;;;;;20.57;47.84;101903.25;4986495;28;99823;-48
2022/07/05 06:58:19;;;;;;;1.87;0.87;;;;;;;20.66;47.54;101900.03;4986566;28;97382;-48
2022/07/05 07:00:45;;;;;;;0.70;0.50;;;;;;;20.72;47.28;101905.53;4993751;28;97012;-47
2022/07/05 07:03:10;;;;;;;0.90;0.50;;;;;;;20.77;47.02;101908.22;4998762;28;97298;-48
2022/07/05 07:05:35;;;;;;;2.50;0.80;;;;;;;20.84;46.85;101904.81;4997106;28;97331;-48
2022/07/05 07:10:44;;;;;;;0.87;0.50;;;;;;;21.04;46.17;101902.72;4990394;28;96992;-48
2022/07/05 07:13:10;;;;;;;1.47;0.90;;;;;;;21.05;46.24;101905.00;4997103;28;97358;-48
2022/07/05 07:15:35;;;;;;;0.80;0.47;;;;;;;21.10;45.93;101904.13;4996354;28;97205;-48
2022/07/05 07:18:01;;;;;;;1.00;0.80;;;;;;;21.12;45.79;101906.41;4989944;28;97331;-48
2022/07/05 07:20:27;;;;;;;1.30;0.50;;;;;;;21.17;45.84;101906.31;4993074;28;97332;-48
2022/07/05 07:22:52;;;;;;;0.67;0.47;;;;;;;21.27;45.43;101906.66;4996278;28;97341;-48
2022/07/05 07:25:20;;;;;;;0.70;0.63;;;;;;;21.36;45.48;101915.38;4997852;28;97147;-47
2022/07/05 07:27:47;;;;;;;0.60;0.40;;;;;;;21.50;44.97;101902.88;4997283;28;97151;-48
2022/07/05 07:30:17;;;;;;;0.70;0.40;;;;;;;21.60;44.37;101889.22;5003785;28;96924;-49
2022/07/05 07:32:44;;;;;;;1.23;0.50;;;;;;;21.67;44.69;101899.00;4994883;28;98011;-48
2022/07/05 07:35:10;;;;;;;0.73;0.47;;;;;;;21.70;44.24;101890.28;4996247;28;97151;-49
2022/07/05 07:37:35;;;;;;;1.80;0.50;;;;;;;21.73;44.17;101894.81;4992825;28;96847;-48
2022/07/05 07:40:03;;;;;;;1.20;0.70;;;;;;;21.71;44.04;101905.78;4996133;28;97106;-48
2022/07/05 07:42:29;;;;;;;1.00;0.63;;;;;;;21.70;43.92;101901.47;4996206;28;97123;-48
2022/07/05 07:44:55;;;;;;;2.10;0.50;;;;;;;21.76;43.99;101899.31;4995866;28;97123;-50
2022/07/05 07:47:20;;;;;;;0.70;0.57;;;;;;;21.81;43.87;101887.25;4989603;28;97000;-48
2022/07/05 07:49:45;;;;;;;0.93;0.53;;;;;;;21.92;43.72;101895.44;4999470;28;97316;-48
2022/07/05 07:52:11;;;;;;;0.97;0.60;;;;;;;22.04;43.55;101899.50;4994489;28;97361;-48
2022/07/05 07:54:36;;;;;;;1.77;0.67;;;;;;;22.16;43.32;101894.41;4998266;28;97458;-48
2022/07/05 07:57:04;;;;;;;3.07;0.50;;;;;;;22.16;42.87;101900.00;4997736;28;97241;-50
2022/07/05 07:59:33;;;;;;;0.70;0.50;;;;;;;22.27;43.01;101897.72;4999992;28;97260;-48
2022/07/05 08:01:59;;;;;;;0.60;0.50;;;;;;;22.35;42.99;101892.19;4995278;28;100681;-47
2022/07/05 08:04:25;;;;;;;1.17;0.70;;;;;;;22.42;42.81;101890.75;4996296;28;97246;-48
2022/07/05 08:06:50;;;;;;;8.03;0.60;;;;;;;22.49;42.51;101890.06;4992600;28;97068;-48
2022/07/05 08:09:15;;;;;;;0.80;0.50;;;;;;;22.54;42.44;101894.81;4987280;28;96881;-49
2022/07/05 08:11:41;;;;;;;1.83;0.50;;;;;;;22.65;42.49;101891.78;5001426;28;102413;-48
2022/07/05 08:14:06;;;;;;;2.03;0.60;;;;;;;22.74;42.24;101902.50;4998706;28;97164;-48
2022/07/05 08:16:32;;;;;;;0.70;0.50;;;;;;;22.77;42.08;101901.41;4994145;28;97027;-48
2022/07/05 08:21:43;;;;;;;0.60;0.40;;;;;;;22.75;41.82;101901.19;4999283;28;97377;-48
2022/07/05 08:24:11;;;;;;;2.83;0.60;;;;;;;22.70;41.74;101910.50;4998643;28;99322;-48
2022/07/05 08:26:38;;;;;;;1.07;0.67;;;;;;;22.76;41.92;101902.72;5002343;28;96773;-48
2022/07/05 08:29:07;;;;;;;1.07;0.50;;;;;;;22.80;41.13;101903.13;4998470;28;96831;-48
2022/07/05 08:31:35;;;;;;;0.90;0.50;;;;;;;22.73;41.29;101903.81;4995358;28;96795;-49
2022/07/05 08:34:01;;;;;;;0.90;0.57;;;;;;;22.68;41.17;101904.69;4995674;28;97212;-47
2022/07/05 08:36:26;;;;;;;0.90;0.57;;;;;;;22.79;41.10;101898.81;4999648;28;96833;-48
2022/07/05 08:38:52;;;;;;;0.60;0.43;;;;;;;22.95;40.99;101892.78;4995185;28;97137;-48
2022/07/05 08:41:20;;;;;;;1.10;0.50;;;;;;;23.19;40.76;101897.25;4998396;28;97634;-48
2022/07/05 08:43:47;;;;;;;2.03;0.80;;;;;;;23.31;40.26;101897.69;4998024;28;97103;-48
2022/07/05 08:46:15;;;;;;;1.57;0.40;;;;;;;23.28;40.04;101902.38;4995178;28;97098;-48
2022/07/05 08:48:43;;;;;;;0.90;0.50;;;;;;;23.26;40.17;101890.94;4995666;28;97482;-48
2022/07/05 08:51:12;;;;;;;1.53;0.50;;;;;;;23.26;40.12;101898.63;5000298;28;97394;-49
2022/07/05 08:53:39;;;;;;;1.00;0.40;;;;;;;23.25;40.03;101895.03;4999959;28;96957;-48
2022/07/05 08:56:09;;;;;;;5.57;0.80;;;;;;;23.20;40.06;101887.50;4993618;28;96881;-49
2022/07/05 08:58:36;;;;;;;0.60;0.50;;;;;;;23.29;39.99;101891.88;4996142;28;97012;-48
2022/07/05 09:01:02;;;;;;;0.60;0.40;;;;;;;23.40;39.88;101891.59;5002103;28;97902;-50
2022/07/05 09:03:42;;;;;;;0.60;0.60;;;;;;;23.59;38.96;101884.41;5000784;28;96954;-48
2022/07/05 09:06:09;;;;;;;0.60;0.40;;;;;;;23.72;39.27;101894.78;4997549;28;96738;-49
2022/07/05 09:08:40;;;;;;;0.87;0.40;;;;;;;23.90;39.05;101890.16;5003256;28;97286;-49
2022/07/05 09:11:09;;;;;;;0.80;0.50;;;;;;;24.11;38.89;101896.47;4997208;28;98690;-49
2022/07/05 09:13:36;;;;;;;0.60;0.50;;;;;;;24.08;38.62;101892.69;5000080;28;97414;-48
2022/07/05 09:16:02;;;;;;;0.67;0.50;;;;;;;24.05;38.29;101893.81;4995347;28;98404;-48
2022/07/05 09:18:48;;;;;;;1.07;0.50;;;;;;;23.96;37.48;101911.19;4990106;28;96904;-49
2022/07/05 09:21:20;;;;;;;0.60;0.50;;;;;;;23.87;38.55;101902.53;5000018;28;100760;-47
2022/07/05 09:23:58;;;;;;;2.20;0.60;;;;;;;24.07;37.76;101893.28;4996676;28;99969;-49
2022/07/05 09:27:03;;;;;;;0.80;0.40;;;;;;;24.27;36.88;101890.31;4993473;28;96946;-48
2022/07/05 09:29:29;;;;;;;0.70;0.50;;;;;;;24.21;37.99;101898.19;4922237;28;97182;-48
2022/07/05 09:31:54;;;;;;;0.70;0.40;;;;;;;24.21;38.28;101900.22;4983399;28;97348;-47
2022/07/05 09:34:20;;;;;;;0.60;0.50;;;;;;;24.30;37.97;101899.69;4999948;28;97323;-48
2022/07/05 09:37:02;;;;;;;2.10;0.50;;;;;;;24.37;37.26;101905.34;5000404;28;97095;-47
2022/07/05 09:39:33;;;;;;;0.60;0.50;;;;;;;24.27;37.44;101903.63;5002458;28;96912;-47
2022/07/05 09:42:23;;;;;;;1.17;0.70;;;;;;;24.32;36.84;101899.88;4992153;28;100397;-47
2022/07/05 09:44:49;;;;;;;2.20;0.50;;;;;;;24.66;37.68;101905.94;4994322;28;100830;-47
2022/07/05 09:47:16;;;;;;;1.10;0.53;;;;;;;24.97;37.17;101898.28;4993695;28;97059;-48
2022/07/05 09:49:47;;;;;;;0.80;0.70;;;;;;;25.27;36.21;101896.19;4997724;28;96794;-47
2022/07/05 09:52:33;;;;;;;0.60;0.40;;;;;;;25.52;35.33;101892.78;4992601;28;96923;-48
2022/07/05 09:55:05;;;;;;;0.60;0.50;;;;;;;25.73;35.92;101901.75;4997807;28;97230;-47
2022/07/05 09:57:32;;;;;;;2.07;0.47;;;;;;;25.93;36.02;101900.69;4995871;28;96911;-48
2022/07/05 10:00:15;;;;;;;0.60;0.40;;;;;;;26.15;34.84;101902.69;4996311;28;96981;-48
2022/07/05 10:02:42;;;;;;;1.17;0.60;;;;;;;26.37;35.35;101899.00;4997810;28;96849;-48
2022/07/05 10:05:09;;;;;;;1.57;0.50;;;;;;;26.43;34.54;101895.97;4995708;28;96877;-48
2022/07/05 10:07:40;;;;;;;0.77;0.50;;;;;;;26.20;34.42;101900.97;4989944;28;96844;-48
2022/07/05 10:10:06;;;;;;;2.07;0.53;;;;;;;25.92;35.10;101916.13;4994165;28;97037;-48
2022/07/05 10:12:35;;;;;;;0.70;0.50;;;;;;;25.72;35.12;101906.63;4991406;28;97284;-48
2022/07/05 10:15:01;;;;;;;0.83;0.53;;;;;;;25.62;35.07;101905.69;4999133;28;97152;-50
2022/07/05 10:17:30;;;;;;;1.17;0.53;;;;;;;25.48;35.26;101906.50;4994822;28;96967;-46
2022/07/05 10:19:57;;;;;;;0.70;0.50;;;;;;;25.56;35.46;101908.00;4997049;28;97303;-47
2022/07/05 10:22:23;;;;;;;0.90;0.40;;;;;;;25.73;35.21;101908.13;4999105;28;97394;-47
2022/07/05 10:24:48;;;;;;;0.70;0.47;;;;;;;25.88;35.11;101899.59;4997501;28;97521;-47
2022/07/05 10:27:14;;;;;;;0.70;0.40;;;;;;;26.02;34.68;101900.84;4986131;28;96964;-47
2022/07/05 10:29:40;;;;;;;0.90;0.57;;;;;;;26.18;34.69;101912.09;4990277;28;97277;-47
2022/07/05 10:32:11;;;;;;;0.90;0.43;;;;;;;26.27;34.34;101895.31;4993320;28;97396;-47
2022/07/05 10:34:37;;;;;;;0.67;0.50;;;;;;;26.30;34.27;101899.06;4994348;28;97293;-47
2022/07/05 10:37:04;;;;;;;1.13;0.40;;;;;;;26.30;33.81;101891.31;4999425;28;96939;-48
2022/07/05 10:39:30;;;;;;;1.07;0.40;;;;;;;26.26;34.11;101899.44;4997772;28;96998;-48
2022/07/05 10:41:57;;;;;;;0.60;0.40;;;;;;;26.19;33.90;101900.22;4998901;28;97149;-47
2022/07/05 10:44:40;;;;;;;1.33;0.50;;;;;;;25.97;33.46;101898.25;4996175;28;97279;-47
2022/07/05 10:47:12;;;;;;;0.90;0.43;;;;;;;26.09;34.28;101898.59;4998827;28;97124;-46
2022/07/05 10:49:39;;;;;;;0.60;0.40;;;;;;;26.23;34.14;101888.56;4994610;28;97306;-47
2022/07/05 10:52:23;;;;;;;0.67;0.50;;;;;;;26.32;31.83;101897.13;4999726;28;97383;-49
2022/07/05 10:55:16;;;;;;;1.17;0.50;;;;;;;26.24;32.42;101896.44;4995249;28;97178;-47
2022/07/05 10:57:41;;;;;;;1.30;0.43;;;;;;;26.13;33.79;101896.88;5001790;28;97231;-47
2022/07/05 11:00:09;;;;;;;0.60;0.40;;;;;;;26.04;33.76;101898.22;4998034;28;97279;-47
2022/07/05 11:02:35;;;;;;;0.70;0.40;;;;;;;26.02;34.12;101891.63;4998320;28;100771;-47
2022/07/05 11:05:02;;;;;;;1.07;0.60;;;;;;;25.90;33.43;101891.34;4997098;28;101871;-47
2022/07/05 11:08:02;;;;;;;0.70;0.40;;;;;;;25.77;33.34;101894.41;4999401;28;97146;-46
2022/07/05 11:10:31;;;;;;;0.60;0.40;;;;;;;25.77;33.91;101893.66;4991280;28;96995;-46
2022/07/05 11:12:56;;;;;;;0.70;0.50;;;;;;;25.74;33.58;101883.50;4996355;28;97511;-47
2022/07/05 11:15:22;;;;;;;0.60;0.50;;;;;;;25.62;33.56;101885.25;4998140;28;97178;-47
2022/07/05 11:17:47;;;;;;;0.77;0.50;;;;;;;25.56;33.40;101884.69;4992305;28;96805;-48
2022/07/05 11:20:21;;;;;;;0.60;0.40;;;;;;;25.69;33.60;101888.03;5000234;28;97337;-47
2022/07/05 11:23:04;;;;;;;0.90;0.50;;;;;;;25.79;32.40;101886.13;4992446;28;97136;-49
2022/07/05 11:25:31;;;;;;;0.70;0.50;;;;;;;25.70;33.25;101877.50;4996397;28;101402;-46
2022/07/05 11:28:23;;;;;;;0.83;0.63;;;;;;;25.84;33.24;101881.59;4994667;28;96950;-48
2022/07/05 11:30:55;;;;;;;0.60;0.47;;;;;;;26.08;32.93;101877.34;4986520;28;97006;-47
2022/07/05 11:33:38;;;;;;;0.80;0.40;;;;;;;26.16;32.65;101881.63;4998635;28;96980;-46